createdAt,value
2022-12-06T00:01:28.764Z,100309.03
2022-12-06T00:03:59.052Z,100313.69
2022-12-06T00:06:28.503Z,100316.50
2022-12-06T00:08:57.487Z,100313.34
2022-12-06T00:11:27.608Z,100316.84
2022-12-06T00:13:58.086Z,100312.31
2022-12-06T00:16:26.159Z,100305.88
2022-12-06T00:18:54.607Z,100304.53
2022-12-06T00:21:24.498Z,100307.34
2022-12-06T00:23:53.674Z,100300.03
2022-12-06T00:26:22.533Z,100298.09
2022-12-06T00:28:53.780Z,100294.78
2022-12-06T00:31:24.764Z,100301.94
2022-12-06T00:33:52.836Z,100296.63
2022-12-06T00:36:22.542Z,100295.59
2022-12-06T00:38:50.764Z,100294.06
2022-12-06T00:41:20.729Z,100288.03
2022-12-06T00:43:48.597Z,100293.59
2022-12-06T00:46:18.202Z,100293.28
2022-12-06T00:48:48.818Z,100291.50
2022-12-06T00:51:17.532Z,100294.09
2022-12-06T00:53:46.004Z,100278.97
2022-12-06T00:56:14.410Z,100279.91
2022-12-06T00:58:42.538Z,100277.00
2022-12-06T01:01:11.518Z,100273.44
2022-12-06T01:03:39.545Z,100277.94
2022-12-06T01:06:11.312Z,100278.44
2022-12-06T01:08:40.280Z,100287.03
2022-12-06T01:11:09.348Z,100301.59
2022-12-06T01:13:37.357Z,100295.91
2022-12-06T01:16:09.519Z,100295.88
2022-12-06T01:18:37.761Z,100296.28
2022-12-06T01:21:08.414Z,100299.59
2022-12-06T01:23:36.469Z,100302.44
2022-12-06T01:26:04.372Z,100306.91
2022-12-06T01:28:31.998Z,100302.50
2022-12-06T01:30:59.805Z,100305.69
2022-12-06T01:33:27.441Z,100303.50
2022-12-06T01:35:55.035Z,100310.66
2022-12-06T01:38:24.084Z,100311.59
2022-12-06T01:40:51.672Z,100317.97
2022-12-06T01:43:34.419Z,100309.34
2022-12-06T01:46:07.933Z,100317.47
2022-12-06T01:48:36.157Z,100308.72
2022-12-06T01:51:05.641Z,100308.94
2022-12-06T01:53:35.552Z,100309.44
2022-12-06T01:56:03.747Z,100308.38
2022-12-06T01:58:35.825Z,100315.00
2022-12-06T02:01:03.558Z,100289.25
2022-12-06T02:03:34.542Z,100295.88
2022-12-06T02:06:04.401Z,100290.69
2022-12-06T02:08:34.794Z,100282.63
2022-12-06T02:11:03.414Z,100296.16
2022-12-06T02:13:33.008Z,100283.19
2022-12-06T02:16:11.737Z,100289.81
2022-12-06T02:18:45.282Z,100288.59
2022-12-06T02:21:22.870Z,100287.16
2022-12-06T02:24:24.583Z,100272.63
2022-12-06T02:27:00.736Z,100268.47
2022-12-06T02:30:00.707Z,100272.72
2022-12-06T02:32:35.327Z,100265.97
2022-12-06T02:35:12.096Z,100275.69
2022-12-06T02:37:45.890Z,100275.00
2022-12-06T02:40:19.849Z,100264.66
2022-12-06T02:42:54.974Z,100264.09
2022-12-06T02:45:27.961Z,100266.47
2022-12-06T02:48:02.630Z,100266.88
2022-12-06T02:50:34.851Z,100273.34
2022-12-06T02:53:04.236Z,100268.91
2022-12-06T02:55:34.121Z,100269.63
2022-12-06T02:58:01.842Z,100275.94
2022-12-06T03:00:40.022Z,100275.34
2022-12-06T03:03:31.031Z,100265.38
2022-12-06T03:06:34.116Z,100268.38
2022-12-06T03:09:12.572Z,100262.28
2022-12-06T03:11:50.543Z,100263.72
2022-12-06T03:14:21.934Z,100264.41
2022-12-06T03:16:55.237Z,100261.06
2022-12-06T03:19:26.761Z,100260.44
2022-12-06T03:22:01.721Z,100263.81
2022-12-06T03:24:32.711Z,100268.38
2022-12-06T03:27:02.618Z,100271.38
2022-12-06T03:29:32.552Z,100271.00
2022-12-06T03:32:03.459Z,100270.63
2022-12-06T03:34:37.263Z,100269.34
2022-12-06T03:37:06.983Z,100268.88
2022-12-06T03:39:40.044Z,100262.16
2022-12-06T03:42:08.422Z,100260.16
2022-12-06T03:44:36.446Z,100261.31
2022-12-06T03:47:11.614Z,100258.84
2022-12-06T03:49:45.675Z,100258.69
2022-12-06T03:52:13.290Z,100259.00
2022-12-06T03:54:41.326Z,100258.78
2022-12-06T03:57:10.158Z,100250.81
2022-12-06T03:59:37.817Z,100247.88
2022-12-06T04:02:05.493Z,100244.31
2022-12-06T04:04:33.110Z,100245.44
2022-12-06T04:07:02.066Z,100243.97
2022-12-06T04:09:47.303Z,100242.78
2022-12-06T04:12:28.801Z,100240.22
2022-12-06T04:14:56.375Z,100237.00
2022-12-06T04:17:41.521Z,100233.00
2022-12-06T04:20:09.586Z,100229.66
2022-12-06T04:22:55.986Z,100226.09
2022-12-06T04:25:23.606Z,100228.06
2022-12-06T04:28:08.814Z,100226.34
2022-12-06T04:30:54.193Z,100232.69
2022-12-06T04:33:39.715Z,100229.50
2022-12-06T04:36:25.707Z,100227.47
2022-12-06T04:38:54.746Z,100220.31
2022-12-06T04:41:36.209Z,100215.72
2022-12-06T04:44:05.047Z,100229.50
2022-12-06T04:46:33.083Z,100227.22
2022-12-06T04:49:01.003Z,100217.81
2022-12-06T04:51:28.956Z,100221.22
2022-12-06T04:53:58.674Z,100217.44
2022-12-06T04:56:26.219Z,100222.53
2022-12-06T04:58:53.810Z,100214.69
2022-12-06T05:01:21.487Z,100223.81
2022-12-06T05:03:49.191Z,100224.56
2022-12-06T05:06:16.890Z,100215.09
2022-12-06T05:08:44.473Z,100215.75
2022-12-06T05:11:13.476Z,100212.63
2022-12-06T05:13:41.128Z,100219.19
2022-12-06T05:16:09.650Z,100214.00
2022-12-06T05:18:37.473Z,100216.16
2022-12-06T05:21:06.887Z,100204.44
2022-12-06T05:23:42.361Z,100216.59
2022-12-06T05:26:13.567Z,100223.19
2022-12-06T05:28:41.506Z,100228.38
2022-12-06T05:31:09.399Z,100238.69
2022-12-06T05:33:37.806Z,100229.13
2022-12-06T05:36:09.002Z,100227.91
2022-12-06T05:38:36.892Z,100227.63
2022-12-06T05:41:05.649Z,100223.72
2022-12-06T05:43:34.887Z,100234.91
2022-12-06T05:46:02.621Z,100227.16
2022-12-06T05:48:30.569Z,100229.88
2022-12-06T05:50:58.527Z,100226.25
2022-12-06T05:53:26.109Z,100219.88
2022-12-06T05:55:54.071Z,100220.84
2022-12-06T05:58:21.748Z,100224.56
2022-12-06T06:00:51.226Z,100218.84
2022-12-06T06:03:19.340Z,100223.34
2022-12-06T06:05:49.499Z,100209.88
2022-12-06T06:08:17.597Z,100218.03
2022-12-06T06:10:45.845Z,100208.13
2022-12-06T06:13:13.587Z,100214.91
2022-12-06T06:15:41.148Z,100217.00
2022-12-06T06:18:10.029Z,100211.09
2022-12-06T06:20:37.658Z,100215.50
2022-12-06T06:23:05.546Z,100208.91
2022-12-06T06:25:33.237Z,100210.69
2022-12-06T06:28:00.782Z,100216.19
2022-12-06T06:30:28.387Z,100208.78
2022-12-06T06:32:56.023Z,100214.00
2022-12-06T06:35:25.229Z,100213.09
2022-12-06T06:37:53.024Z,100213.13
2022-12-06T06:40:21.779Z,100214.34
2022-12-06T06:42:49.466Z,100210.88
2022-12-06T06:45:17.288Z,100219.53
2022-12-06T06:47:44.905Z,100224.38
2022-12-06T06:50:13.326Z,100219.63
2022-12-06T06:52:42.363Z,100224.03
2022-12-06T06:55:10.402Z,100223.91
2022-12-06T06:57:41.201Z,100231.84
2022-12-06T07:00:10.428Z,100235.44
2022-12-06T07:02:39.625Z,100239.66
2022-12-06T07:05:08.345Z,100235.66
2022-12-06T07:07:36.031Z,100230.03
2022-12-06T07:10:06.691Z,100239.19
2022-12-06T07:12:36.036Z,100236.84
2022-12-06T07:15:03.739Z,100240.81
2022-12-06T07:17:31.360Z,100240.72
2022-12-06T07:19:59.332Z,100240.41
2022-12-06T07:22:27.067Z,100241.81
2022-12-06T07:24:54.689Z,100239.59
2022-12-06T07:27:23.675Z,100242.00
2022-12-06T07:29:51.351Z,100238.03
2022-12-06T07:32:18.987Z,100235.94
2022-12-06T07:34:46.819Z,100238.91
2022-12-06T07:37:15.076Z,100237.69
2022-12-06T07:39:43.986Z,100239.50
2022-12-06T07:42:29.311Z,100239.09
2022-12-06T07:45:05.610Z,100251.88
2022-12-06T07:47:34.995Z,100249.53
2022-12-06T07:50:03.134Z,100258.41
2022-12-06T07:52:35.253Z,100251.19
2022-12-06T07:55:03.150Z,100256.44
2022-12-06T07:57:31.180Z,100255.84
2022-12-06T08:00:00.594Z,100255.75
2022-12-06T08:02:29.466Z,100250.97
2022-12-06T08:04:57.562Z,100247.31
2022-12-06T08:07:26.620Z,100239.25
2022-12-06T08:09:54.969Z,100235.25
2022-12-06T08:12:23.109Z,100249.13
2022-12-06T08:14:53.149Z,100233.56
2022-12-06T08:17:24.319Z,100236.75
2022-12-06T08:19:51.954Z,100241.09
2022-12-06T08:22:19.548Z,100251.19
2022-12-06T08:24:47.156Z,100243.97
2022-12-06T08:27:15.057Z,100243.66
2022-12-06T08:29:45.102Z,100240.50
2022-12-06T08:32:13.019Z,100245.09
2022-12-06T08:34:42.828Z,100251.97
2022-12-06T08:37:10.553Z,100241.25
2022-12-06T08:39:38.151Z,100249.63
2022-12-06T08:42:07.607Z,100242.19
2022-12-06T08:44:36.798Z,100248.22
2022-12-06T08:47:04.662Z,100244.34
2022-12-06T08:49:32.458Z,100250.91
2022-12-06T08:52:01.725Z,100250.78
2022-12-06T08:54:31.639Z,100248.47
2022-12-06T08:56:59.233Z,100242.69
2022-12-06T08:59:26.873Z,100250.00
2022-12-06T09:01:54.509Z,100251.94
2022-12-06T09:04:22.902Z,100251.72
2022-12-06T09:06:50.626Z,100253.69
2022-12-06T09:09:21.235Z,100265.19
2022-12-06T09:11:50.659Z,100266.34
2022-12-06T09:14:22.030Z,100262.69
2022-12-06T09:16:51.081Z,100264.06
2022-12-06T09:19:19.311Z,100258.94
2022-12-06T09:21:47.292Z,100265.91
2022-12-06T09:24:17.787Z,100256.75
2022-12-06T09:26:47.302Z,100264.69
2022-12-06T09:29:15.830Z,100260.31
2022-12-06T09:31:43.514Z,100257.47
2022-12-06T09:34:12.424Z,100263.81
2022-12-06T09:36:44.730Z,100256.00
2022-12-06T09:39:16.068Z,100257.69
2022-12-06T09:42:15.444Z,100254.88
2022-12-06T09:45:13.926Z,100258.63
2022-12-06T09:47:55.737Z,100263.53
2022-12-06T09:50:33.589Z,100259.44
2022-12-06T09:53:16.711Z,100269.66
2022-12-06T09:56:01.224Z,100265.53
2022-12-06T09:58:43.443Z,100262.19
2022-12-06T10:01:20.917Z,100265.88
2022-12-06T10:04:24.538Z,100263.53
2022-12-06T10:07:04.281Z,100257.97
2022-12-06T10:09:40.415Z,100254.88
2022-12-06T10:12:21.156Z,100258.75
2022-12-06T10:15:16.415Z,100262.41
2022-12-06T10:18:01.003Z,100254.09
2022-12-06T10:20:34.759Z,100255.25
2022-12-06T10:23:15.653Z,100255.53
2022-12-06T10:25:52.848Z,100257.50
2022-12-06T10:28:33.358Z,100255.75
2022-12-06T10:31:13.571Z,100260.72
2022-12-06T10:33:53.519Z,100253.56
2022-12-06T10:36:48.708Z,100248.44
2022-12-06T10:39:25.077Z,100251.91
2022-12-06T10:42:02.815Z,100243.75
2022-12-06T10:44:36.308Z,100242.09
2022-12-06T10:47:12.627Z,100244.78
2022-12-06T10:49:48.592Z,100247.78
2022-12-06T10:52:30.956Z,100243.31
2022-12-06T10:55:06.221Z,100238.63
2022-12-06T10:57:42.431Z,100230.94
2022-12-06T11:00:16.700Z,100237.78
2022-12-06T11:02:54.409Z,100241.81
2022-12-06T11:05:27.331Z,100240.81
2022-12-06T11:08:03.326Z,100245.97
2022-12-06T11:10:34.771Z,100245.13
2022-12-06T11:13:12.937Z,100235.13
2022-12-06T11:15:47.480Z,100242.81
2022-12-06T11:18:20.580Z,100245.44
2022-12-06T11:20:52.344Z,100243.81
2022-12-06T11:23:28.058Z,100244.81
2022-12-06T11:26:06.244Z,100244.81
2022-12-06T11:28:37.543Z,100240.13
2022-12-06T11:31:17.009Z,100234.81
2022-12-06T11:33:46.427Z,100239.09
2022-12-06T11:36:14.365Z,100234.44
2022-12-06T11:38:44.396Z,100226.28
2022-12-06T11:41:18.674Z,100221.44
2022-12-06T11:43:46.519Z,100221.25
2022-12-06T11:46:15.781Z,100219.91
2022-12-06T11:48:43.950Z,100223.19
2022-12-06T11:51:18.467Z,100224.34
2022-12-06T11:54:00.140Z,100226.19
2022-12-06T11:56:30.390Z,100217.91
2022-12-06T11:59:08.082Z,100210.72
2022-12-06T12:01:41.862Z,100207.88
2022-12-06T12:04:32.835Z,100210.16
2022-12-06T12:07:05.892Z,100207.63
2022-12-06T12:09:38.050Z,100205.69
2022-12-06T12:12:13.953Z,100201.00
2022-12-06T12:14:59.727Z,100198.16
2022-12-06T12:17:33.756Z,100195.31
2022-12-06T12:20:05.543Z,100193.25
2022-12-06T12:22:39.353Z,100196.31
2022-12-06T12:25:24.760Z,100208.38
2022-12-06T12:27:54.414Z,100199.59
2022-12-06T12:30:25.680Z,100201.38
2022-12-06T12:33:10.888Z,100198.31
2022-12-06T12:35:40.772Z,100201.00
2022-12-06T12:38:24.584Z,100199.31
2022-12-06T12:40:54.474Z,100199.13
2022-12-06T12:43:24.520Z,100200.34
2022-12-06T12:46:14.843Z,100199.59
2022-12-06T12:48:45.157Z,100193.97
2022-12-06T12:51:26.365Z,100194.09
2022-12-06T12:53:58.621Z,100194.94
2022-12-06T12:56:30.567Z,100196.13
2022-12-06T12:58:58.779Z,100191.47
2022-12-06T13:01:44.278Z,100195.44
2022-12-06T13:04:19.585Z,100195.91
2022-12-06T13:06:51.196Z,100193.47
2022-12-06T13:09:26.065Z,100190.75
2022-12-06T13:11:58.571Z,100186.72
2022-12-06T13:14:29.148Z,100194.22
2022-12-06T13:17:01.263Z,100191.72
2022-12-06T13:19:34.561Z,100190.72
2022-12-06T13:22:05.101Z,100186.56
2022-12-06T13:24:38.871Z,100188.28
2022-12-06T13:27:13.865Z,100190.47
2022-12-06T13:29:46.656Z,100186.13
2022-12-06T13:32:22.097Z,100187.94
2022-12-06T13:34:51.813Z,100188.13
2022-12-06T13:37:30.951Z,100185.78
2022-12-06T13:40:02.415Z,100177.63
2022-12-06T13:42:46.494Z,100180.25
2022-12-06T13:45:41.227Z,100168.50
2022-12-06T13:48:45.873Z,100172.19
2022-12-06T13:51:45.115Z,100182.84
2022-12-06T13:54:37.444Z,100190.31
2022-12-06T13:57:28.779Z,100183.31
2022-12-06T13:59:58.152Z,100178.69
2022-12-06T14:02:53.458Z,100186.81
2022-12-06T14:08:38.378Z,100185.63
2022-12-06T14:11:21.048Z,100187.47
2022-12-06T14:13:59.593Z,100175.97
2022-12-06T14:16:32.774Z,100178.97
2022-12-06T14:19:00.540Z,100183.00
2022-12-06T14:21:31.987Z,100186.81
2022-12-06T14:24:08.278Z,100192.31
2022-12-06T14:26:43.523Z,100186.84
2022-12-06T14:29:22.262Z,100183.19
2022-12-06T14:31:52.199Z,100184.31
2022-12-06T14:34:26.883Z,100189.00
2022-12-06T14:36:54.905Z,100185.50
2022-12-06T14:39:25.727Z,100188.16
2022-12-06T14:42:12.967Z,100185.66
2022-12-06T14:44:42.855Z,100183.53
2022-12-06T14:47:15.566Z,100179.81
2022-12-06T14:50:01.722Z,100179.34
2022-12-06T14:52:32.421Z,100176.19
2022-12-06T14:55:21.127Z,100181.66
2022-12-06T14:57:56.597Z,100181.84
2022-12-06T15:00:28.120Z,100182.53
2022-12-06T15:03:16.090Z,100191.50
2022-12-06T15:05:45.836Z,100194.00
2022-12-06T15:08:32.210Z,100189.50
2022-12-06T15:11:03.595Z,100187.19
2022-12-06T15:13:30.538Z,100191.16
2022-12-06T15:16:06.665Z,100187.16
2022-12-06T15:18:57.238Z,100172.53
2022-12-06T15:21:25.876Z,100180.34
2022-12-06T15:23:55.054Z,100178.16
2022-12-06T15:26:26.574Z,100173.34
2022-12-06T15:28:54.110Z,100177.16
2022-12-06T15:31:29.704Z,100176.19
2022-12-06T15:33:57.739Z,100177.69
2022-12-06T15:36:38.013Z,100186.16
2022-12-06T15:39:12.210Z,100187.47
2022-12-06T15:41:42.031Z,100178.00
2022-12-06T15:44:17.252Z,100173.47
2022-12-06T15:46:49.311Z,100180.63
2022-12-06T15:49:18.816Z,100184.97
2022-12-06T15:51:46.797Z,100180.63
2022-12-06T15:54:17.574Z,100182.66
2022-12-06T15:56:47.386Z,100174.50
2022-12-06T15:59:16.052Z,100181.81
2022-12-06T16:01:45.943Z,100180.50
2022-12-06T16:04:15.823Z,100182.81
2022-12-06T16:06:44.147Z,100180.31
2022-12-06T16:09:12.633Z,100188.94
2022-12-06T16:11:40.591Z,100199.09
2022-12-06T16:14:11.667Z,100189.25
2022-12-06T16:16:43.343Z,100180.69
2022-12-06T16:19:12.219Z,100186.31
2022-12-06T16:21:55.837Z,100174.97
2022-12-06T16:24:45.445Z,100168.19
2022-12-06T16:27:16.183Z,100173.22
2022-12-06T16:29:58.993Z,100179.88
2022-12-06T16:32:31.534Z,100180.19
2022-12-06T16:35:02.356Z,100177.25
2022-12-06T16:37:30.240Z,100178.38
2022-12-06T16:39:57.875Z,100184.13
2022-12-06T16:42:34.230Z,100175.16
2022-12-06T16:45:03.800Z,100168.97
2022-12-06T16:47:32.715Z,100175.47
2022-12-06T16:50:00.959Z,100182.47
2022-12-06T16:52:28.643Z,100188.28
2022-12-06T16:54:59.012Z,100182.09
2022-12-06T16:57:26.995Z,100177.13
2022-12-06T16:59:54.608Z,100167.97
2022-12-06T17:02:29.032Z,100177.78
2022-12-06T17:05:00.850Z,100175.09
2022-12-06T17:07:30.460Z,100180.72
2022-12-06T17:09:58.392Z,100178.97
2022-12-06T17:12:26.186Z,100181.25
2022-12-06T17:14:53.847Z,100183.38
2022-12-06T17:17:25.842Z,100184.34
2022-12-06T17:19:57.183Z,100187.59
2022-12-06T17:22:25.295Z,100186.31
2022-12-06T17:24:52.868Z,100192.50
2022-12-06T17:27:20.577Z,100192.19
2022-12-06T17:29:48.676Z,100186.19
2022-12-06T17:32:21.641Z,100194.41
2022-12-06T17:34:49.802Z,100188.44
2022-12-06T17:37:20.394Z,100188.28
2022-12-06T17:39:49.120Z,100189.88
2022-12-06T17:42:34.647Z,100190.56
2022-12-06T17:45:03.427Z,100184.97
2022-12-06T17:47:33.685Z,100184.78
2022-12-06T17:50:01.769Z,100189.13
2022-12-06T17:52:34.513Z,100193.63
2022-12-06T17:55:02.687Z,100197.13
2022-12-06T17:57:30.452Z,100196.59
2022-12-06T17:59:59.119Z,100191.59
2022-12-06T18:02:27.754Z,100193.78
2022-12-06T18:04:56.454Z,100196.13
2022-12-06T18:07:25.371Z,100188.06
2022-12-06T18:09:54.433Z,100194.88
2022-12-06T18:12:22.130Z,100196.63
2022-12-06T18:14:49.818Z,100190.81
2022-12-06T18:17:18.195Z,100194.63
2022-12-06T18:19:49.441Z,100191.19
2022-12-06T18:22:17.304Z,100196.84
2022-12-06T18:24:45.373Z,100194.09
2022-12-06T18:27:17.738Z,100191.84
2022-12-06T18:29:45.889Z,100191.84
2022-12-06T18:32:14.179Z,100191.19
2022-12-06T18:34:42.710Z,100194.09
2022-12-06T18:37:10.721Z,100192.09
2022-12-06T18:39:38.587Z,100185.09
2022-12-06T18:42:06.518Z,100193.56
2022-12-06T18:44:36.034Z,100193.22
2022-12-06T18:47:04.260Z,100190.75
2022-12-06T18:49:32.232Z,100190.59
2022-12-06T18:51:59.832Z,100189.44
2022-12-06T18:54:28.268Z,100188.13
2022-12-06T18:56:57.759Z,100189.28
2022-12-06T18:59:27.754Z,100186.13
2022-12-06T19:01:57.636Z,100186.63
2022-12-06T19:04:26.322Z,100183.28
2022-12-06T19:06:54.216Z,100183.22
2022-12-06T19:09:24.545Z,100179.53
2022-12-06T19:11:52.856Z,100182.19
2022-12-06T19:14:21.101Z,100185.53
2022-12-06T19:16:51.085Z,100190.75
2022-12-06T19:19:22.489Z,100195.06
2022-12-06T19:21:51.954Z,100185.34
2022-12-06T19:24:22.502Z,100186.34
2022-12-06T19:26:52.495Z,100188.69
2022-12-06T19:29:20.568Z,100193.50
2022-12-06T19:31:50.852Z,100182.66
2022-12-06T19:34:21.943Z,100198.47
2022-12-06T19:36:55.163Z,100191.53
2022-12-06T19:39:23.874Z,100192.69
2022-12-06T19:42:09.221Z,100194.41
2022-12-06T19:44:38.960Z,100202.03
2022-12-06T19:47:08.111Z,100203.38
2022-12-06T19:49:37.893Z,100203.19
2022-12-06T19:52:13.867Z,100211.13
2022-12-06T19:54:43.939Z,100208.56
2022-12-06T19:57:12.499Z,100209.56
2022-12-06T19:59:40.294Z,100204.06
2022-12-06T20:02:08.686Z,100214.25
2022-12-06T20:04:40.069Z,100208.59
2022-12-06T20:07:08.609Z,100208.34
2022-12-06T20:09:36.259Z,100214.22
2022-12-06T20:12:07.627Z,100222.13
2022-12-06T20:14:40.303Z,100215.09
2022-12-06T20:17:10.044Z,100214.75
2022-12-06T20:19:39.711Z,100215.28
2022-12-06T20:22:07.674Z,100219.41
2022-12-06T20:24:36.097Z,100205.06
2022-12-06T20:27:05.767Z,100209.19
2022-12-06T20:29:33.739Z,100202.00
2022-12-06T20:32:01.929Z,100195.13
2022-12-06T20:34:34.403Z,100186.94
2022-12-06T20:37:06.039Z,100183.38
2022-12-06T20:39:35.737Z,100178.75
2022-12-06T20:42:05.943Z,100176.25
2022-12-06T20:44:34.239Z,100168.88
2022-12-06T20:47:02.051Z,100177.69
2022-12-06T20:49:31.019Z,100174.28
2022-12-06T20:52:02.199Z,100179.44
2022-12-06T20:54:31.519Z,100190.22
2022-12-06T20:56:59.322Z,100185.97
2022-12-06T20:59:27.121Z,100188.16
2022-12-06T21:01:55.033Z,100185.81
2022-12-06T21:04:22.958Z,100186.19
2022-12-06T21:06:50.676Z,100178.84
2022-12-06T21:09:18.346Z,100185.06
2022-12-06T21:11:48.019Z,100180.72
2022-12-06T21:14:17.250Z,100175.06
2022-12-06T21:16:49.687Z,100180.44
2022-12-06T21:19:19.689Z,100174.59
2022-12-06T21:21:50.197Z,100179.59
2022-12-06T21:24:20.475Z,100181.88
2022-12-06T21:26:50.505Z,100185.97
2022-12-06T21:29:20.845Z,100178.34
2022-12-06T21:31:50.419Z,100184.50
2022-12-06T21:34:18.894Z,100186.03
2022-12-06T21:36:47.670Z,100187.78
2022-12-06T21:39:16.306Z,100184.63
2022-12-06T21:41:46.061Z,100178.50
2022-12-06T21:44:16.655Z,100179.53
2022-12-06T21:46:45.678Z,100179.91
2022-12-06T21:49:13.404Z,100171.00
2022-12-06T21:51:41.063Z,100167.84
2022-12-06T21:54:09.974Z,100175.81
2022-12-06T22:00:55.336Z,100201.69
2022-12-06T22:06:38.028Z,100193.50
2022-12-06T22:11:58.811Z,100196.53
2022-12-06T22:14:26.769Z,100199.13
2022-12-06T22:16:57.467Z,100196.22
2022-12-06T22:19:30.071Z,100195.47
2022-12-06T22:22:00.592Z,100192.41
2022-12-06T22:24:28.955Z,100191.09
2022-12-06T22:27:00.681Z,100195.88
2022-12-06T22:29:37.973Z,100193.72
2022-12-06T22:32:07.741Z,100195.44
2022-12-06T22:34:37.284Z,100197.16
2022-12-06T22:37:05.297Z,100194.03
2022-12-06T22:39:34.484Z,100190.16
2022-12-06T22:42:02.171Z,100193.38
2022-12-06T22:44:33.090Z,100193.78
2022-12-06T22:47:01.056Z,100197.53
2022-12-06T22:49:31.143Z,100196.22
2022-12-06T22:51:59.906Z,100195.38
2022-12-06T22:54:27.812Z,100193.81
2022-12-06T22:56:57.864Z,100193.81
2022-12-06T22:59:33.269Z,100199.56
2022-12-06T23:02:08.753Z,100198.25
2022-12-06T23:04:38.163Z,100200.22
2022-12-06T23:07:06.854Z,100190.44
2022-12-06T23:09:36.015Z,100191.59
2022-12-06T23:12:04.143Z,100197.19
2022-12-06T23:14:32.297Z,100190.66
2022-12-06T23:17:00.733Z,100192.81
2022-12-06T23:19:28.873Z,100195.38
2022-12-06T23:21:57.945Z,100200.81
2022-12-06T23:24:25.634Z,100199.66
2022-12-06T23:26:57.678Z,100201.41
2022-12-06T23:29:26.201Z,100200.75
2022-12-06T23:31:53.944Z,100193.25
2022-12-06T23:34:26.246Z,100193.09
2022-12-06T23:36:54.296Z,100194.50
2022-12-06T23:39:23.365Z,100185.94
2022-12-06T23:41:50.993Z,100185.41
2022-12-06T23:44:18.902Z,100195.22
2022-12-06T23:46:46.725Z,100183.03
2022-12-06T23:49:17.804Z,100188.13
2022-12-06T23:51:45.821Z,100174.66
2022-12-06T23:54:14.584Z,100170.28
2022-12-06T23:56:44.918Z,100170.00
2022-12-06T23:59:14.931Z,100176.06
